sensor_id;sensor_type;location;lat;lon;timestamp;pressure;altitude;pressure_sealevel;temperature;humidity
67430;BME280;54298;52.076;5.264;2023-12-20T00:01:32;101441.0;;;7.68;88.76
67430;BME280;54298;52.076;5.264;2023-12-20T00:04:44;101440.0;;;7.74;88.73
67430;BME280;54298;52.076;5.264;2023-12-20T00:06:20;101434.0;;;7.66;89.06
67430;BME280;54298;52.076;5.264;2023-12-20T00:07:56;101432.0;;;7.68;88.97
67430;BME280;54298;52.076;5.264;2023-12-20T00:09:32;101427.0;;;7.69;88.92
67430;BME280;54298;52.076;5.264;2023-12-20T00:12:44;101432.0;;;7.63;88.89
67430;BME280;54298;52.076;5.264;2023-12-20T00:14:20;101428.0;;;7.66;88.93
67430;BME280;54298;52.076;5.264;2023-12-20T00:15:56;101430.0;;;7.64;88.67
67430;BME280;54298;52.076;5.264;2023-12-20T00:19:09;101421.0;;;7.58;88.82
67430;BME280;54298;52.076;5.264;2023-12-20T00:20:45;101422.0;;;7.59;88.82
67430;BME280;54298;52.076;5.264;2023-12-20T00:22:21;101430.0;;;7.62;88.77
67430;BME280;54298;52.076;5.264;2023-12-20T00:25:33;101433.0;;;7.47;88.74
67430;BME280;54298;52.076;5.264;2023-12-20T00:27:09;101425.0;;;7.51;88.98
67430;BME280;54298;52.076;5.264;2023-12-20T00:28:45;101423.0;;;7.49;88.9
67430;BME280;54298;52.076;5.264;2023-12-20T00:31:57;101425.0;;;7.45;89.09
67430;BME280;54298;52.076;5.264;2023-12-20T00:33:33;101424.0;;;7.41;89.06
67430;BME280;54298;52.076;5.264;2023-12-20T00:35:10;101428.0;;;7.52;88.76
67430;BME280;54298;52.076;5.264;2023-12-20T00:36:46;101437.0;;;7.45;89.17
67430;BME280;54298;52.076;5.264;2023-12-20T00:39:58;101441.0;;;7.45;88.82
67430;BME280;54298;52.076;5.264;2023-12-20T00:41:37;101437.0;;;7.42;88.94
67430;BME280;54298;52.076;5.264;2023-12-20T00:43:13;101441.0;;;7.38;89.05
67430;BME280;54298;52.076;5.264;2023-12-20T00:46:25;101440.0;;;7.4;88.94
67430;BME280;54298;52.076;5.264;2023-12-20T00:48:02;101435.0;;;7.39;88.61
67430;BME280;54298;52.076;5.264;2023-12-20T00:49:37;101431.0;;;7.37;88.72
67430;BME280;54298;52.076;5.264;2023-12-20T00:52:50;101428.0;;;7.32;88.73
67430;BME280;54298;52.076;5.264;2023-12-20T00:54:26;101434.0;;;7.34;88.58
67430;BME280;54298;52.076;5.264;2023-12-20T00:56:02;101433.0;;;7.41;88.34
67430;BME280;54298;52.076;5.264;2023-12-20T00:57:38;101434.0;;;7.37;88.35
67430;BME280;54298;52.076;5.264;2023-12-20T01:00:52;101430.0;;;7.3;88.51
67430;BME280;54298;52.076;5.264;2023-12-20T01:02:28;101436.0;;;7.26;88.68
67430;BME280;54298;52.076;5.264;2023-12-20T01:04:04;101435.0;;;7.19;88.57
67430;BME280;54298;52.076;5.264;2023-12-20T01:07:16;101423.0;;;7.21;89.02
67430;BME280;54298;52.076;5.264;2023-12-20T01:08:53;101418.0;;;7.2;88.71
67430;BME280;54298;52.076;5.264;2023-12-20T01:10:29;101419.0;;;7.23;88.45
67430;BME280;54298;52.076;5.264;2023-12-20T01:13:41;101418.0;;;7.19;88.5
67430;BME280;54298;52.076;5.264;2023-12-20T01:15:18;101419.0;;;7.22;88.31
67430;BME280;54298;52.076;5.264;2023-12-20T01:16:54;101421.0;;;7.33;87.99
67430;BME280;54298;52.076;5.264;2023-12-20T01:18:30;101424.0;;;7.32;87.96
67430;BME280;54298;52.076;5.264;2023-12-20T01:21:43;101425.0;;;7.28;88.19
67430;BME280;54298;52.076;5.264;2023-12-20T01:23:19;101428.0;;;7.27;88.26
67430;BME280;54298;52.076;5.264;2023-12-20T01:24:55;101440.0;;;7.21;88.65
67430;BME280;54298;52.076;5.264;2023-12-20T01:28:08;101442.0;;;7.27;88.62
67430;BME280;54298;52.076;5.264;2023-12-20T01:29:44;101435.0;;;7.24;88.86
67430;BME280;54298;52.076;5.264;2023-12-20T01:31:20;101433.0;;;7.24;89.15
67430;BME280;54298;52.076;5.264;2023-12-20T01:34:32;101428.0;;;7.27;89.2
67430;BME280;54298;52.076;5.264;2023-12-20T01:36:08;101428.0;;;7.34;88.91
67430;BME280;54298;52.076;5.264;2023-12-20T01:37:44;101424.0;;;7.44;88.54
67430;BME280;54298;52.076;5.264;2023-12-20T01:40:57;101418.0;;;7.45;88.56
67430;BME280;54298;52.076;5.264;2023-12-20T01:42:33;101418.0;;;7.57;87.9
67430;BME280;54298;52.076;5.264;2023-12-20T01:44:09;101415.0;;;7.51;87.75
67430;BME280;54298;52.076;5.264;2023-12-20T01:45:45;101423.0;;;7.54;87.9
67430;BME280;54298;52.076;5.264;2023-12-20T01:48:58;101422.0;;;7.54;87.61
67430;BME280;54298;52.076;5.264;2023-12-20T01:50:35;101420.0;;;7.52;87.66
67430;BME280;54298;52.076;5.264;2023-12-20T01:52:13;101424.0;;;7.58;87.44
67430;BME280;54298;52.076;5.264;2023-12-20T01:55:25;101423.0;;;7.61;87.05
67430;BME280;54298;52.076;5.264;2023-12-20T01:57:03;101425.0;;;7.59;87.24
67430;BME280;54298;52.076;5.264;2023-12-20T01:58:43;101425.0;;;7.64;87.28
67430;BME280;54298;52.076;5.264;2023-12-20T02:00:25;101428.0;;;7.68;87.31
67430;BME280;54298;52.076;5.264;2023-12-20T02:03:40;101423.0;;;7.67;87.18
67430;BME280;54298;52.076;5.264;2023-12-20T02:05:16;101423.0;;;7.69;87.07
67430;BME280;54298;52.076;5.264;2023-12-20T02:06:54;101419.0;;;7.67;87.02
67430;BME280;54298;52.076;5.264;2023-12-20T02:10:08;101422.0;;;7.63;87.36
67430;BME280;54298;52.076;5.264;2023-12-20T02:11:43;101419.0;;;7.61;87.5
67430;BME280;54298;52.076;5.264;2023-12-20T02:13:20;101420.0;;;7.68;87.5
67430;BME280;54298;52.076;5.264;2023-12-20T02:16:32;101424.0;;;7.76;87.35
67430;BME280;54298;52.076;5.264;2023-12-20T02:18:08;101419.0;;;7.76;87.36
67430;BME280;54298;52.076;5.264;2023-12-20T02:21:24;101424.0;;;7.82;87.21
67430;BME280;54298;52.076;5.264;2023-12-20T02:24:39;101421.0;;;7.79;87.31
67430;BME280;54298;52.076;5.264;2023-12-20T02:26:16;101415.0;;;7.8;87.12
67430;BME280;54298;52.076;5.264;2023-12-20T02:27:52;101410.0;;;7.82;86.78
67430;BME280;54298;52.076;5.264;2023-12-20T02:31:05;101415.0;;;7.81;86.94
67430;BME280;54298;52.076;5.264;2023-12-20T02:32:41;101406.0;;;7.82;86.94
67430;BME280;54298;52.076;5.264;2023-12-20T02:34:17;101407.0;;;7.77;87.35
67430;BME280;54298;52.076;5.264;2023-12-20T02:37:29;101405.0;;;7.75;87.29
67430;BME280;54298;52.076;5.264;2023-12-20T02:39:05;101399.0;;;7.69;87.38
67430;BME280;54298;52.076;5.264;2023-12-20T02:40:41;101407.0;;;7.79;87.4
67430;BME280;54298;52.076;5.264;2023-12-20T02:42:17;101403.0;;;7.75;87.41
67430;BME280;54298;52.076;5.264;2023-12-20T02:45:30;101397.0;;;7.82;87.39
67430;BME280;54298;52.076;5.264;2023-12-20T02:47:06;101397.0;;;7.89;86.94
67430;BME280;54298;52.076;5.264;2023-12-20T02:48:42;101398.0;;;7.82;87.01
67430;BME280;54298;52.076;5.264;2023-12-20T02:51:54;101394.0;;;7.76;87.27
67430;BME280;54298;52.076;5.264;2023-12-20T02:53:30;101402.0;;;7.82;87.14
67430;BME280;54298;52.076;5.264;2023-12-20T02:55:06;101397.0;;;7.97;86.77
67430;BME280;54298;52.076;5.264;2023-12-20T02:58:22;101395.0;;;8.0;86.47
67430;BME280;54298;52.076;5.264;2023-12-20T02:59:58;101391.0;;;7.92;86.29
67430;BME280;54298;52.076;5.264;2023-12-20T03:01:35;101380.0;;;7.95;86.31
67430;BME280;54298;52.076;5.264;2023-12-20T03:03:11;101380.0;;;7.85;86.63
67430;BME280;54298;52.076;5.264;2023-12-20T03:06:23;101372.0;;;7.91;86.47
67430;BME280;54298;52.076;5.264;2023-12-20T03:08:04;101370.0;;;7.9;86.43
67430;BME280;54298;52.076;5.264;2023-12-20T03:09:40;101364.0;;;8.02;85.8
67430;BME280;54298;52.076;5.264;2023-12-20T03:12:52;101356.0;;;8.02;85.71
67430;BME280;54298;52.076;5.264;2023-12-20T03:14:28;101366.0;;;8.01;85.72
67430;BME280;54298;52.076;5.264;2023-12-20T03:16:08;101374.0;;;8.0;85.6
67430;BME280;54298;52.076;5.264;2023-12-20T03:17:44;101376.0;;;8.01;85.78
67430;BME280;54298;52.076;5.264;2023-12-20T03:20:57;101371.0;;;8.15;84.87
67430;BME280;54298;52.076;5.264;2023-12-20T03:22:33;101366.0;;;8.16;84.94
67430;BME280;54298;52.076;5.264;2023-12-20T03:24:09;101367.0;;;8.3;84.38
67430;BME280;54298;52.076;5.264;2023-12-20T03:27:21;101369.0;;;8.23;84.27
67430;BME280;54298;52.076;5.264;2023-12-20T03:28:57;101372.0;;;8.22;84.25
67430;BME280;54298;52.076;5.264;2023-12-20T03:30:36;101371.0;;;8.23;84.23
67430;BME280;54298;52.076;5.264;2023-12-20T03:33:48;101367.0;;;8.22;84.84
67430;BME280;54298;52.076;5.264;2023-12-20T03:35:24;101373.0;;;8.18;84.43
67430;BME280;54298;52.076;5.264;2023-12-20T03:37:01;101368.0;;;8.22;84.02
67430;BME280;54298;52.076;5.264;2023-12-20T03:40:13;101372.0;;;8.2;84.06
67430;BME280;54298;52.076;5.264;2023-12-20T03:41:49;101362.0;;;8.2;83.77
67430;BME280;54298;52.076;5.264;2023-12-20T03:43:25;101355.0;;;8.17;83.84
67430;BME280;54298;52.076;5.264;2023-12-20T03:45:01;101361.0;;;8.23;83.69
67430;BME280;54298;52.076;5.264;2023-12-20T03:48:13;101373.0;;;8.26;83.05
67430;BME280;54298;52.076;5.264;2023-12-20T03:49:49;101371.0;;;8.22;83.15
67430;BME280;54298;52.076;5.264;2023-12-20T03:51:25;101373.0;;;8.25;83.09
67430;BME280;54298;52.076;5.264;2023-12-20T03:54:41;101371.0;;;8.3;82.79
67430;BME280;54298;52.076;5.264;2023-12-20T03:56:17;101374.0;;;8.3;82.63
67430;BME280;54298;52.076;5.264;2023-12-20T03:57:53;101374.0;;;8.32;82.38
67430;BME280;54298;52.076;5.264;2023-12-20T04:01:09;101376.0;;;8.32;82.19
67430;BME280;54298;52.076;5.264;2023-12-20T04:02:45;101376.0;;;8.28;82.35
67430;BME280;54298;52.076;5.264;2023-12-20T04:04:21;101382.0;;;8.33;82.22
67430;BME280;54298;52.076;5.264;2023-12-20T04:05:57;101381.0;;;8.28;82.53
67430;BME280;54298;52.076;5.264;2023-12-20T04:09:11;101378.0;;;8.3;82.33
67430;BME280;54298;52.076;5.264;2023-12-20T04:10:47;101381.0;;;8.47;81.91
67430;BME280;54298;52.076;5.264;2023-12-20T04:12:24;101380.0;;;8.39;82.0
67430;BME280;54298;52.076;5.264;2023-12-20T04:15:36;101384.0;;;8.34;82.22
67430;BME280;54298;52.076;5.264;2023-12-20T04:17:12;101370.0;;;8.51;81.78
67430;BME280;54298;52.076;5.264;2023-12-20T04:18:50;101373.0;;;8.48;81.22
67430;BME280;54298;52.076;5.264;2023-12-20T04:22:02;101373.0;;;8.31;81.38
67430;BME280;54298;52.076;5.264;2023-12-20T04:23:38;101372.0;;;8.35;81.38
67430;BME280;54298;52.076;5.264;2023-12-20T04:25:14;101365.0;;;8.32;81.28
67430;BME280;54298;52.076;5.264;2023-12-20T04:26:50;101363.0;;;8.36;81.12
67430;BME280;54298;52.076;5.264;2023-12-20T04:30:03;101357.0;;;8.38;81.24
67430;BME280;54298;52.076;5.264;2023-12-20T04:31:40;101363.0;;;8.36;81.48
67430;BME280;54298;52.076;5.264;2023-12-20T04:33:16;101370.0;;;8.43;80.87
67430;BME280;54298;52.076;5.264;2023-12-20T04:36:28;101364.0;;;8.4;80.61
67430;BME280;54298;52.076;5.264;2023-12-20T04:38:04;101367.0;;;8.48;80.44
67430;BME280;54298;52.076;5.264;2023-12-20T04:39:40;101370.0;;;8.47;80.36
67430;BME280;54298;52.076;5.264;2023-12-20T04:42:52;101361.0;;;8.43;80.58
67430;BME280;54298;52.076;5.264;2023-12-20T04:44:29;101359.0;;;8.6;80.16
67430;BME280;54298;52.076;5.264;2023-12-20T04:46:05;101362.0;;;8.49;80.11
67430;BME280;54298;52.076;5.264;2023-12-20T04:47:41;101355.0;;;8.66;79.61
67430;BME280;54298;52.076;5.264;2023-12-20T04:50:54;101362.0;;;8.61;79.69
67430;BME280;54298;52.076;5.264;2023-12-20T04:52:30;101367.0;;;8.59;79.91
67430;BME280;54298;52.076;5.264;2023-12-20T04:54:06;101359.0;;;8.68;79.69
67430;BME280;54298;52.076;5.264;2023-12-20T04:57:18;101351.0;;;8.61;80.11
67430;BME280;54298;52.076;5.264;2023-12-20T04:58:55;101357.0;;;8.71;79.77
67430;BME280;54298;52.076;5.264;2023-12-20T05:00:31;101355.0;;;8.67;80.19
67430;BME280;54298;52.076;5.264;2023-12-20T05:03:43;101345.0;;;8.65;80.16
67430;BME280;54298;52.076;5.264;2023-12-20T05:05:20;101349.0;;;8.6;80.2
67430;BME280;54298;52.076;5.264;2023-12-20T05:06:56;101343.0;;;8.67;80.13
67430;BME280;54298;52.076;5.264;2023-12-20T05:10:09;101350.0;;;8.65;80.2
67430;BME280;54298;52.076;5.264;2023-12-20T05:11:45;101345.0;;;8.65;80.38
67430;BME280;54298;52.076;5.264;2023-12-20T05:13:21;101349.0;;;8.73;80.11
67430;BME280;54298;52.076;5.264;2023-12-20T05:14:58;101345.0;;;8.74;80.03
67430;BME280;54298;52.076;5.264;2023-12-20T05:18:11;101346.0;;;8.64;80.19
67430;BME280;54298;52.076;5.264;2023-12-20T05:19:47;101351.0;;;8.63;80.19
67430;BME280;54298;52.076;5.264;2023-12-20T05:21:23;101342.0;;;8.64;80.36
67430;BME280;54298;52.076;5.264;2023-12-20T05:24:38;101351.0;;;8.64;80.27
67430;BME280;54298;52.076;5.264;2023-12-20T05:26:14;101353.0;;;8.56;80.3
67430;BME280;54298;52.076;5.264;2023-12-20T05:27:50;101355.0;;;8.55;80.33
67430;BME280;54298;52.076;5.264;2023-12-20T05:31:03;101355.0;;;8.45;80.53
67430;BME280;54298;52.076;5.264;2023-12-20T05:32:38;101348.0;;;8.48;80.53
67430;BME280;54298;52.076;5.264;2023-12-20T05:34:14;101347.0;;;8.48;80.59
67430;BME280;54298;52.076;5.264;2023-12-20T05:35:50;101349.0;;;8.56;80.52
67430;BME280;54298;52.076;5.264;2023-12-20T05:39:02;101351.0;;;8.51;80.47
67430;BME280;54298;52.076;5.264;2023-12-20T05:40:39;101346.0;;;8.48;80.47
67430;BME280;54298;52.076;5.264;2023-12-20T05:42:15;101344.0;;;8.48;80.28
67430;BME280;54298;52.076;5.264;2023-12-20T05:45:27;101351.0;;;8.6;79.95
67430;BME280;54298;52.076;5.264;2023-12-20T05:47:03;101360.0;;;8.51;80.09
67430;BME280;54298;52.076;5.264;2023-12-20T05:48:39;101358.0;;;8.51;80.22
67430;BME280;54298;52.076;5.264;2023-12-20T05:51:52;101356.0;;;8.55;80.12
67430;BME280;54298;52.076;5.264;2023-12-20T05:53:28;101362.0;;;8.56;80.11
67430;BME280;54298;52.076;5.264;2023-12-20T05:55:04;101363.0;;;8.53;79.98
67430;BME280;54298;52.076;5.264;2023-12-20T05:58:16;101359.0;;;8.64;79.63
67430;BME280;54298;52.076;5.264;2023-12-20T05:59:52;101357.0;;;8.61;79.78
67430;BME280;54298;52.076;5.264;2023-12-20T06:01:28;101355.0;;;8.64;79.61
67430;BME280;54298;52.076;5.264;2023-12-20T06:03:04;101351.0;;;8.64;79.45
67430;BME280;54298;52.076;5.264;2023-12-20T06:06:17;101353.0;;;8.63;79.47
67430;BME280;54298;52.076;5.264;2023-12-20T06:07:53;101358.0;;;8.66;79.59
67430;BME280;54298;52.076;5.264;2023-12-20T06:09:29;101361.0;;;8.65;79.56
67430;BME280;54298;52.076;5.264;2023-12-20T06:12:42;101357.0;;;8.59;79.64
67430;BME280;54298;52.076;5.264;2023-12-20T06:14:18;101350.0;;;8.57;79.88
67430;BME280;54298;52.076;5.264;2023-12-20T06:15:54;101338.0;;;8.51;80.19
67430;BME280;54298;52.076;5.264;2023-12-20T06:19:09;101342.0;;;8.53;80.16
67430;BME280;54298;52.076;5.264;2023-12-20T06:20:45;101339.0;;;8.51;80.2
67430;BME280;54298;52.076;5.264;2023-12-20T06:22:21;101338.0;;;8.48;80.44
67430;BME280;54298;52.076;5.264;2023-12-20T06:23:58;101342.0;;;8.51;80.38
67430;BME280;54298;52.076;5.264;2023-12-20T06:27:10;101342.0;;;8.43;80.72
67430;BME280;54298;52.076;5.264;2023-12-20T06:28:47;101340.0;;;8.55;80.22
67430;BME280;54298;52.076;5.264;2023-12-20T06:30:23;101336.0;;;8.64;80.19
67430;BME280;54298;52.076;5.264;2023-12-20T06:33:36;101344.0;;;8.48;80.67
67430;BME280;54298;52.076;5.264;2023-12-20T06:35:12;101341.0;;;8.55;80.37
67430;BME280;54298;52.076;5.264;2023-12-20T06:36:48;101341.0;;;8.56;80.39
67430;BME280;54298;52.076;5.264;2023-12-20T06:40:00;101348.0;;;8.66;80.16
67430;BME280;54298;52.076;5.264;2023-12-20T06:41:40;101342.0;;;8.75;79.73
67430;BME280;54298;52.076;5.264;2023-12-20T06:43:16;101342.0;;;8.73;79.8
67430;BME280;54298;52.076;5.264;2023-12-20T06:44:52;101340.0;;;8.66;80.13
67430;BME280;54298;52.076;5.264;2023-12-20T06:48:05;101334.0;;;8.58;80.27
67430;BME280;54298;52.076;5.264;2023-12-20T06:49:41;101336.0;;;8.52;80.61
67430;BME280;54298;52.076;5.264;2023-12-20T06:51:17;101333.0;;;8.56;80.58
67430;BME280;54298;52.076;5.264;2023-12-20T06:54:32;101331.0;;;8.71;80.27
67430;BME280;54298;52.076;5.264;2023-12-20T06:56:10;101331.0;;;8.59;80.47
67430;BME280;54298;52.076;5.264;2023-12-20T06:57:46;101334.0;;;8.58;80.61
67430;BME280;54298;52.076;5.264;2023-12-20T07:00:59;101333.0;;;8.77;80.19
67430;BME280;54298;52.076;5.264;2023-12-20T07:02:35;101335.0;;;8.76;80.16
67430;BME280;54298;52.076;5.264;2023-12-20T07:04:14;101337.0;;;8.86;79.84
67430;BME280;54298;52.076;5.264;2023-12-20T07:05:50;101334.0;;;8.78;80.24
67430;BME280;54298;52.076;5.264;2023-12-20T07:09:02;101331.0;;;8.81;80.16
67430;BME280;54298;52.076;5.264;2023-12-20T07:10:38;101332.0;;;8.81;80.03
67430;BME280;54298;52.076;5.264;2023-12-20T07:12:14;101333.0;;;8.88;80.0
67430;BME280;54298;52.076;5.264;2023-12-20T07:15:29;101326.0;;;8.92;79.91
67430;BME280;54298;52.076;5.264;2023-12-20T07:17:06;101326.0;;;8.89;79.69
67430;BME280;54298;52.076;5.264;2023-12-20T07:18:42;101321.0;;;8.89;79.55
67430;BME280;54298;52.076;5.264;2023-12-20T07:21:54;101314.0;;;8.88;79.77
67430;BME280;54298;52.076;5.264;2023-12-20T07:23:30;101315.0;;;8.83;79.75
67430;BME280;54298;52.076;5.264;2023-12-20T07:25:07;101308.0;;;8.78;79.97
67430;BME280;54298;52.076;5.264;2023-12-20T07:26:46;101307.0;;;8.81;80.13
67430;BME280;54298;52.076;5.264;2023-12-20T07:29:58;101308.0;;;8.88;79.92
67430;BME280;54298;52.076;5.264;2023-12-20T07:31:34;101305.0;;;8.9;79.8
67430;BME280;54298;52.076;5.264;2023-12-20T07:33:10;101315.0;;;8.88;79.61
67430;BME280;54298;52.076;5.264;2023-12-20T07:36:23;101305.0;;;8.98;79.22
67430;BME280;54298;52.076;5.264;2023-12-20T07:38:02;101301.0;;;8.98;79.28
67430;BME280;54298;52.076;5.264;2023-12-20T07:39:39;101303.0;;;9.08;79.23
67430;BME280;54298;52.076;5.264;2023-12-20T07:42:51;101305.0;;;8.99;79.52
67430;BME280;54298;52.076;5.264;2023-12-20T07:44:27;101305.0;;;8.99;79.25
67430;BME280;54298;52.076;5.264;2023-12-20T07:46:04;101312.0;;;9.09;79.23
67430;BME280;54298;52.076;5.264;2023-12-20T07:47:40;101311.0;;;9.06;79.27
67430;BME280;54298;52.076;5.264;2023-12-20T07:50:52;101315.0;;;8.98;79.56
67430;BME280;54298;52.076;5.264;2023-12-20T07:52:29;101321.0;;;9.06;79.56
67430;BME280;54298;52.076;5.264;2023-12-20T07:54:05;101321.0;;;9.06;79.53
67430;BME280;54298;52.076;5.264;2023-12-20T07:57:17;101327.0;;;8.99;79.63
67430;BME280;54298;52.076;5.264;2023-12-20T07:58:53;101327.0;;;8.98;79.75
67430;BME280;54298;52.076;5.264;2023-12-20T08:00:29;101334.0;;;9.05;79.86
67430;BME280;54298;52.076;5.264;2023-12-20T08:03:41;101336.0;;;8.98;79.86
67430;BME280;54298;52.076;5.264;2023-12-20T08:05:17;101334.0;;;9.01;80.11
67430;BME280;54298;52.076;5.264;2023-12-20T08:06:53;101337.0;;;8.89;80.27
67430;BME280;54298;52.076;5.264;2023-12-20T08:08:30;101344.0;;;8.93;80.27
67430;BME280;54298;52.076;5.264;2023-12-20T08:11:45;101338.0;;;8.94;80.47
67430;BME280;54298;52.076;5.264;2023-12-20T08:13:21;101343.0;;;8.99;80.03
67430;BME280;54298;52.076;5.264;2023-12-20T08:14:57;101338.0;;;8.9;80.58
67430;BME280;54298;52.076;5.264;2023-12-20T08:18:09;101334.0;;;8.94;80.53
67430;BME280;54298;52.076;5.264;2023-12-20T08:19:45;101336.0;;;9.06;80.24
67430;BME280;54298;52.076;5.264;2023-12-20T08:21:21;101334.0;;;9.0;80.3
67430;BME280;54298;52.076;5.264;2023-12-20T08:24:34;101340.0;;;9.11;80.12
67430;BME280;54298;52.076;5.264;2023-12-20T08:26:10;101327.0;;;9.02;80.36
67430;BME280;54298;52.076;5.264;2023-12-20T08:27:46;101326.0;;;9.03;80.36
67430;BME280;54298;52.076;5.264;2023-12-20T08:30:58;101325.0;;;9.06;80.28
67430;BME280;54298;52.076;5.264;2023-12-20T08:32:34;101322.0;;;9.05;80.16
67430;BME280;54298;52.076;5.264;2023-12-20T08:34:13;101319.0;;;9.06;80.27
67430;BME280;54298;52.076;5.264;2023-12-20T08:35:49;101319.0;;;8.97;80.55
67430;BME280;54298;52.076;5.264;2023-12-20T08:39:02;101326.0;;;9.06;80.33
67430;BME280;54298;52.076;5.264;2023-12-20T08:40:38;101321.0;;;9.27;79.84
67430;BME280;54298;52.076;5.264;2023-12-20T08:42:14;101317.0;;;9.07;80.11
67430;BME280;54298;52.076;5.264;2023-12-20T08:45:26;101324.0;;;9.09;80.24
67430;BME280;54298;52.076;5.264;2023-12-20T08:47:02;101330.0;;;9.14;80.06
67430;BME280;54298;52.076;5.264;2023-12-20T08:48:39;101331.0;;;9.06;80.14
67430;BME280;54298;52.076;5.264;2023-12-20T08:51:51;101328.0;;;9.09;80.5
67430;BME280;54298;52.076;5.264;2023-12-20T08:53:27;101331.0;;;9.14;80.19
67430;BME280;54298;52.076;5.264;2023-12-20T08:55:04;101330.0;;;9.14;80.12
67430;BME280;54298;52.076;5.264;2023-12-20T08:56:41;101331.0;;;9.11;80.44
67430;BME280;54298;52.076;5.264;2023-12-20T08:59:53;101331.0;;;9.06;80.69
67430;BME280;54298;52.076;5.264;2023-12-20T09:01:29;101326.0;;;9.1;80.86
67430;BME280;54298;52.076;5.264;2023-12-20T09:03:05;101323.0;;;8.99;80.95
67430;BME280;54298;52.076;5.264;2023-12-20T09:06:18;101318.0;;;9.06;80.83
67430;BME280;54298;52.076;5.264;2023-12-20T09:07:54;101323.0;;;8.93;81.37
67430;BME280;54298;52.076;5.264;2023-12-20T09:09:30;101320.0;;;9.01;81.44
67430;BME280;54298;52.076;5.264;2023-12-20T09:12:43;101313.0;;;8.98;81.58
67430;BME280;54298;52.076;5.264;2023-12-20T09:14:19;101321.0;;;9.01;81.52
67430;BME280;54298;52.076;5.264;2023-12-20T09:15:55;101317.0;;;8.99;81.78
67430;BME280;54298;52.076;5.264;2023-12-20T09:19:10;101318.0;;;8.98;81.69
67430;BME280;54298;52.076;5.264;2023-12-20T09:20:46;101308.0;;;8.98;82.04
67430;BME280;54298;52.076;5.264;2023-12-20T09:22:22;101317.0;;;8.98;82.08
67430;BME280;54298;52.076;5.264;2023-12-20T09:23:58;101314.0;;;9.16;81.38
67430;BME280;54298;52.076;5.264;2023-12-20T09:27:11;101318.0;;;9.03;81.42
67430;BME280;54298;52.076;5.264;2023-12-20T09:28:47;101322.0;;;9.17;81.02
67430;BME280;54298;52.076;5.264;2023-12-20T09:30:23;101313.0;;;9.21;80.73
67430;BME280;54298;52.076;5.264;2023-12-20T09:33:35;101315.0;;;9.27;80.77
67430;BME280;54298;52.076;5.264;2023-12-20T09:35:12;101313.0;;;9.25;80.66
67430;BME280;54298;52.076;5.264;2023-12-20T09:36:48;101310.0;;;9.18;80.72
67430;BME280;54298;52.076;5.264;2023-12-20T09:40:00;101311.0;;;9.23;80.52
67430;BME280;54298;52.076;5.264;2023-12-20T09:41:43;101319.0;;;9.19;80.7
67430;BME280;54298;52.076;5.264;2023-12-20T09:43:20;101312.0;;;9.31;80.19
67430;BME280;54298;52.076;5.264;2023-12-20T09:45:02;101317.0;;;9.46;79.94
67430;BME280;54298;52.076;5.264;2023-12-20T09:48:19;101321.0;;;9.59;79.53
67430;BME280;54298;52.076;5.264;2023-12-20T09:49:55;101326.0;;;9.52;79.44
67430;BME280;54298;52.076;5.264;2023-12-20T09:51:33;101326.0;;;9.59;79.2
67430;BME280;54298;52.076;5.264;2023-12-20T09:53:15;101335.0;;;9.5;78.73
67430;BME280;54298;52.076;5.264;2023-12-20T09:56:31;101333.0;;;9.5;79.09
67430;BME280;54298;52.076;5.264;2023-12-20T09:58:08;101323.0;;;9.63;78.77
67430;BME280;54298;52.076;5.264;2023-12-20T09:59:44;101326.0;;;9.63;78.47
67430;BME280;54298;52.076;5.264;2023-12-20T10:02:59;101327.0;;;9.61;78.59
67430;BME280;54298;52.076;5.264;2023-12-20T10:04:36;101337.0;;;9.66;78.5
67430;BME280;54298;52.076;5.264;2023-12-20T10:06:12;101342.0;;;9.66;78.39
67430;BME280;54298;52.076;5.264;2023-12-20T10:07:48;101349.0;;;9.6;78.42
67430;BME280;54298;52.076;5.264;2023-12-20T10:11:00;101343.0;;;9.65;78.55
67430;BME280;54298;52.076;5.264;2023-12-20T10:12:36;101344.0;;;9.66;78.33
67430;BME280;54298;52.076;5.264;2023-12-20T10:14:12;101344.0;;;9.63;78.31
67430;BME280;54298;52.076;5.264;2023-12-20T10:17:27;101345.0;;;9.75;78.19
67430;BME280;54298;52.076;5.264;2023-12-20T10:19:04;101342.0;;;9.76;78.14
67430;BME280;54298;52.076;5.264;2023-12-20T10:20:41;101334.0;;;9.67;78.44
67430;BME280;54298;52.076;5.264;2023-12-20T10:23:53;101334.0;;;9.6;78.36
67430;BME280;54298;52.076;5.264;2023-12-20T10:25:30;101335.0;;;9.77;78.24
67430;BME280;54298;52.076;5.264;2023-12-20T10:27:07;101334.0;;;9.83;78.03
67430;BME280;54298;52.076;5.264;2023-12-20T10:28:44;101333.0;;;9.76;77.78
67430;BME280;54298;52.076;5.264;2023-12-20T10:31:56;101324.0;;;9.83;77.72
67430;BME280;54298;52.076;5.264;2023-12-20T10:33:32;101320.0;;;9.85;77.77
67430;BME280;54298;52.076;5.264;2023-12-20T10:35:09;101323.0;;;9.81;77.81
67430;BME280;54298;52.076;5.264;2023-12-20T10:38:21;101328.0;;;9.76;77.86
67430;BME280;54298;52.076;5.264;2023-12-20T10:39:59;101324.0;;;9.81;78.42
67430;BME280;54298;52.076;5.264;2023-12-20T10:41:38;101333.0;;;9.92;78.05
67430;BME280;54298;52.076;5.264;2023-12-20T10:44:51;101331.0;;;9.86;77.94
67430;BME280;54298;52.076;5.264;2023-12-20T10:46:29;101323.0;;;9.96;77.77
67430;BME280;54298;52.076;5.264;2023-12-20T10:48:07;101321.0;;;10.1;77.05
67430;BME280;54298;52.076;5.264;2023-12-20T10:49:44;101317.0;;;9.99;77.0
67430;BME280;54298;52.076;5.264;2023-12-20T10:52:58;101312.0;;;10.0;76.67
67430;BME280;54298;52.076;5.264;2023-12-20T10:54:35;101319.0;;;10.01;76.72
67430;BME280;54298;52.076;5.264;2023-12-20T10:56:12;101310.0;;;9.98;76.56
67430;BME280;54298;52.076;5.264;2023-12-20T10:59:29;101305.0;;;10.08;76.66
67430;BME280;54298;52.076;5.264;2023-12-20T11:01:13;101305.0;;;9.97;76.74
67430;BME280;54298;52.076;5.264;2023-12-20T11:02:50;101300.0;;;10.0;76.37
67430;BME280;54298;52.076;5.264;2023-12-20T11:04:36;101291.0;;;10.16;76.24
67430;BME280;54298;52.076;5.264;2023-12-20T11:08:08;101305.0;;;10.14;76.33
67430;BME280;54298;52.076;5.264;2023-12-20T11:10:00;101288.0;;;10.17;75.95
67430;BME280;54298;52.076;5.264;2023-12-20T11:12:01;101290.0;;;10.06;76.05
67430;BME280;54298;52.076;5.264;2023-12-20T11:13:45;101280.0;;;10.1;76.05
67430;BME280;54298;52.076;5.264;2023-12-20T11:15:24;101287.0;;;10.13;76.02
67430;BME280;54298;52.076;5.264;2023-12-20T11:17:06;101287.0;;;10.16;75.95